Wetterstation Vordersexau
Wetterdaten: Mai 2011
Datum Temp. A. Feuchte A. Luftdruck Regen Wind Richtung Taupunkt Windchill Windben
01.05.2011 15,4 C 70 % 1004,5 hPa 0,4 l/m 0,8 km/h SO 9,4 C 15,3 C 0,5 km/h
02.05.2011 14,8 C 69 % 1003,5 hPa 0,0 l/m 1,8 km/h O-NO 8,6 C 14,6 C 1,0 km/h
03.05.2011 13,4 C 65 % 1008,0 hPa 4,3 l/m 2,1 km/h N-NO 6,1 C 13,2 C 1,2 km/h
04.05.2011 11,8 C 58 % 1016,5 hPa 0,0 l/m 1,5 km/h W 2,6 C 11,7 C 0,8 km/h
05.05.2011 14,3 C 51 % 1019,5 hPa 0,0 l/m 3,4 km/h NW 3,0 C 14,0 C 1,9 km/h
06.05.2011 18,1 C 51 % 1018,4 hPa 0,0 l/m 1,6 km/h NO 6,1 C 18,0 C 0,9 km/h
07.05.2011 20,6 C 51 % 1016,7 hPa 0,0 l/m 3,1 km/h SO 8,4 C 20,5 C 1,7 km/h
08.05.2011 21,4 C 46 % 1016,4 hPa 0,0 l/m 1,1 km/h O-NO 8,1 C 21,4 C 0,6 km/h
09.05.2011 20,8 C 47 % 1019,0 hPa 0,0 l/m 1,7 km/h SO 7,5 C 20,6 C 1,0 km/h
10.05.2011 20,8 C 50 % 1022,1 hPa 0,0 l/m 0,9 km/h NO 8,8 C 20,7 C 0,5 km/h
11.05.2011 19,5 C 65 % 1020,1 hPa 0,7 l/m 2,1 km/h O-SO 12,1 C 19,5 C 1,2 km/h
12.05.2011 17,3 C 74 % 1016,5 hPa 3,9 l/m 1,7 km/h SO 12,3 C 17,2 C 0,9 km/h
13.05.2011 17,2 C 61 % 1018,3 hPa 0,0 l/m 3,2 km/h N-NO 8,6 C 17,0 C 1,8 km/h
14.05.2011 14,4 C 71 % 1014,8 hPa 2,1 l/m 0,5 km/h SO 8,5 C 14,4 C 0,3 km/h
15.05.2011 12,8 C 70 % 1020,6 hPa 1,1 l/m 1,8 km/h NO 7,0 C 12,5 C 1,0 km/h
16.05.2011 13,0 C 69 % 1024,2 hPa 0,7 l/m 4,7 km/h NO 7,1 C 12,1 C 2,6 km/h
17.05.2011 16,9 C 64 % 1021,0 hPa 0,0 l/m 0,9 km/h SO 9,4 C 16,9 C 0,5 km/h
18.05.2011 20,2 C 56 % 1015,9 hPa 0,0 l/m 1,6 km/h S-SO 9,5 C 20,1 C 0,9 km/h
19.05.2011 18,1 C 67 % 1014,8 hPa 3,9 l/m 1,2 km/h SO 10,7 C 18,0 C 0,6 km/h
20.05.2011 19,5 C 65 % 1016,9 hPa 0,0 l/m 1,2 km/h SO 11,9 C 19,5 C 0,7 km/h
21.05.2011 21,0 C 61 % 1018,0 hPa 0,0 l/m 3,8 km/h SO 12,0 C 20,9 C 2,1 km/h
22.05.2011 21,0 C 62 % 1016,8 hPa 0,0 l/m 2,3 km/h W 12,7 C 20,9 C 1,3 km/h
23.05.2011 21,6 C 51 % 1022,5 hPa 0,0 l/m 2,8 km/h NO 9,8 C 21,5 C 1,6 km/h
24.05.2011 20,3 C 54 % 1021,5 hPa 0,0 l/m 2,8 km/h NO 9,5 C 20,1 C 1,6 km/h
25.05.2011 19,4 C 49 % 1021,7 hPa 0,0 l/m 3,8 km/h N-NO 6,8 C 19,2 C 2,1 km/h
26.05.2011 19,7 C 59 % 1013,0 hPa 0,0 l/m 8,8 km/h O-NO 10,4 C 18,8 C 4,9 km/h
27.05.2011 14,4 C 69 % 1015,2 hPa 1,4 l/m 0,8 km/h W-NW 8,4 C 14,3 C 0,4 km/h
28.05.2011 16,3 C 59 % 1016,5 hPa 0,4 l/m 3,0 km/h O-SO 6,9 C 16,0 C 1,7 km/h
29.05.2011 19,4 C 53 % 1015,7 hPa 0,0 l/m 2,5 km/h O-NO 7,7 C 19,2 C 1,4 km/h
30.05.2011 23,4 C 49 % 1012,0 hPa 0,0 l/m 1,1 km/h NO 10,2 C 23,4 C 0,6 km/h
31.05.2011 17,6 C 65 % 1013,7 hPa 8,2 l/m 8,0 km/h W-SW 10,4 C 16,6 C 4,4 km/h
Min-Datum 04.05.11 07.05.11 02.05.11 11 Tage 01.05.11 - 05.05.11 04.05.11 01.05.11
Min-Zeit 06:30 17:30 18:30 - 00:30 - 05:30 06:30 00:30
Minimum 0,9 C 18 % 1001,1 hPa - 0,0 km/h - -1,5 C 0,9 C 0,0 km/h
Max-Datum 30.05.11 15.05.11 25.05.11 31.05.11 26.05.11 - 22.05.11 30.05.11 26.05.11
Max-Zeit 18:30 05:30 01:30 17:30 10:30 - 16:30 18:30 10:30
Maximum 37,7 C 87 % 1026,1 hPa 8,2 l/m 33,0 km/h
O-NO
- 16,2 C 37,7 C 18,4 km/h
O-NO
Durchschnitt 17,9 C 60 % 1016,6 hPa #27,0 l/m 2,5 km/h SO 8,7 C 17,7 C 1,4 km/h

Durchschnitt Minimum Temp.8,3 C
Durchschnitt Maximum Temp.29,5 C
www.sexauwetter.de